^^
Datos históricos de la estación: Murcia-Puente Tocinos
Diario Informe para Julio 8, 2019 Unidades:  Ambas    Ingés   Métrico
Diario Semanal Mensual Anual
  Máxima: Mínima: Promedio:
Temperatura: 86.5 °F /  30.3 °C 73.9 °F /  23.3 °C 80.1 °F /  26.7 °C
Punto de rocio: 70.3 °F /  21.3 °C 58.5 °F /  14.7 °C 66.7 °F /  19.3 °C
Humedad: 83% 39.1% 65%
Velocidad viento: 14.5mph /  23.3km/h - 6.5mph /  10.5km/h
Racha viento: 25.3mph /  40.7km/h - -
Viento- - Este
Presión: 29.8 in /  1010.3 hPa 29.7 in /  1006.8 hPa -
Precipitación: 0 in /  0.0 mm    
 
 
Tabla de datos para Julio 8, 2019
Hora Temperatura Punto de rocio Presión Viento Velocidad viento Racha viento Humedad Intensidad lluvia(por hora) Nubes
00:04 84.6 °F /  29.2 °C 62.4 °F /  16.9 °C 29.8in /  1009.2hPa ENE 4.7mph /  7.6km/h 10mph /  16.1km/h 47.6% 0in /  0.0mm
00:09 84.6 °F /  29.2 °C 63 °F /  17.2 °C 29.8in /  1009.0hPa NNE 5.1mph /  8.2km/h 17.5mph /  28.2km/h 48.5% 0in /  0.0mm
00:14 83.8 °F /  28.8 °C 64.9 °F /  18.3 °C 29.8in /  1009.0hPa NE 5.9mph /  9.5km/h 17.3mph /  27.8km/h 53% 0in /  0.0mm
00:19 83.3 °F /  28.5 °C 65.3 °F /  18.5 °C 29.8in /  1009.0hPa NNE 6.7mph /  10.8km/h 15mph /  24.1km/h 54.7% 0in /  0.0mm
00:24 82.9 °F /  28.3 °C 65.8 °F /  18.8 °C 29.8in /  1008.8hPa NNE 8.5mph /  13.7km/h 17.3mph /  27.8km/h 56.6% 0in /  0.0mm
00:29 82.6 °F /  28.1 °C 67.3 °F /  19.6 °C 29.8in /  1008.8hPa NE 8.6mph /  13.8km/h 17mph /  27.4km/h 60% 0in /  0.0mm
00:34 82 °F /  27.8 °C 67.5 °F /  19.7 °C 29.8in /  1008.8hPa NE 8.7mph /  14km/h 15mph /  24.1km/h 61.1% 0in /  0.0mm
00:39 81.9 °F /  27.7 °C 67.5 °F /  19.7 °C 29.8in /  1008.6hPa NE 8.7mph /  14km/h 14mph /  22.5km/h 62% 0in /  0.0mm
00:44 81.7 °F /  27.6 °C 67.8 °F /  19.9 °C 29.8in /  1008.6hPa NE 8.7mph /  14km/h 15.2mph /  24.5km/h 62.9% 0in /  0.0mm
00:49 81.3 °F /  27.4 °C 67.6 °F /  19.8 °C 29.8in /  1009.1hPa NE 8.6mph /  13.9km/h 15mph /  24.1km/h 63% 0in /  0.0mm
00:54 81.3 °F /  27.4 °C 67.5 °F /  19.7 °C 29.8in /  1009.1hPa NE 8.5mph /  13.7km/h 15.2mph /  24.5km/h 63.1% 0in /  0.0mm
00:59 81.1 °F /  27.3 °C 68.2 °F /  20.1 °C 29.8in /  1009.1hPa NE 8.9mph /  14.3km/h 15.9mph /  25.6km/h 64.5% 0in /  0.0mm
01:04 81.1 °F /  27.3 °C 68.4 °F /  20.2 °C 29.8in /  1009.4hPa NE 9.7mph /  15.6km/h 20.4mph /  32.8km/h 65% 0in /  0.0mm
01:09 81.1 °F /  27.3 °C 68.4 °F /  20.2 °C 29.8in /  1009.4hPa NE 9.5mph /  15.3km/h 20mph /  32.2km/h 65.1% 0in /  0.0mm
01:14 81 °F /  27.2 °C 68.4 °F /  20.2 °C 29.8in /  1009.4hPa NE 9.2mph /  14.8km/h 13mph /  20.9km/h 65.7% 0in /  0.0mm
01:19 81 °F /  27.2 °C 68.4 °F /  20.2 °C 29.8in /  1009.4hPa NE 8.4mph /  13.6km/h 12mph /  19.3km/h 65.6% 0in /  0.0mm
01:24 81 °F /  27.2 °C 68.9 °F /  20.5 °C 29.8in /  1009.2hPa NNE 6.9mph /  11.1km/h 12.7mph /  20.4km/h 67% 0in /  0.0mm
01:29 80.8 °F /  27.1 °C 69.6 °F /  20.9 °C 29.8in /  1009.2hPa NE 6.9mph /  11.1km/h 13mph /  20.9km/h 68.9% 0in /  0.0mm
01:34 80.6 °F /  27 °C 70 °F /  21.1 °C 29.8in /  1009.2hPa NE 6.9mph /  11.1km/h 16.1mph /  25.9km/h 70% 0in /  0.0mm
01:39 80.4 °F /  26.9 °C 70 °F /  21.1 °C 29.8in /  1009.2hPa NE 7.3mph /  11.7km/h 16mph /  25.7km/h 70.5% 0in /  0.0mm
01:44 80.4 °F /  26.9 °C 70.3 °F /  21.3 °C 29.8in /  1009.2hPa NE 8.1mph /  13km/h 15mph /  24.1km/h 71.5% 0in /  0.0mm
01:49 80.2 °F /  26.8 °C 70 °F /  21.1 °C 29.8in /  1009.2hPa NE 8.1mph /  13km/h 15mph /  24.1km/h 70.8% 0in /  0.0mm
01:54 80.2 °F /  26.8 °C 68.7 °F /  20.4 °C 29.8in /  1009.2hPa ENE 8.1mph /  13km/h 15mph /  24.1km/h 68.2% 0in /  0.0mm
01:59 80.2 °F /  26.8 °C 67.1 °F /  19.5 °C 29.8in /  1009.2hPa Este 7.5mph /  12km/h 13mph /  20.9km/h 64.3% 0in /  0.0mm
02:04 80.6 °F /  27 °C 65.5 °F /  18.6 °C 29.8in /  1009.2hPa ENE 6.2mph /  10km/h 10mph /  16.1km/h 60.2% 0in /  0.0mm
02:09 80.8 °F /  27.1 °C 64.9 °F /  18.3 °C 29.8in /  1009.1hPa Este 5.4mph /  8.7km/h 8mph /  12.9km/h 58.4% 0in /  0.0mm
02:14 81 °F /  27.2 °C 64.4 °F /  18 °C 29.8in /  1009.1hPa Este 3.6mph /  5.8km/h 6.4mph /  10.3km/h 57.2% 0in /  0.0mm
02:19 81.1 °F /  27.3 °C 64.6 °F /  18.1 °C 29.8in /  1009.3hPa ESE 3.7mph /  6km/h 12.7mph /  20.4km/h 57.1% 0in /  0.0mm
02:24 81.1 °F /  27.3 °C 65.3 °F /  18.5 °C 29.8in /  1009.3hPa ESE 4mph /  6.5km/h 13mph /  20.9km/h 58.8% 0in /  0.0mm
02:29 81 °F /  27.2 °C 65.8 °F /  18.8 °C 29.8in /  1009.3hPa ESE 5mph /  8.1km/h 12.7mph /  20.4km/h 60.2% 0in /  0.0mm
02:34 80.4 °F /  26.9 °C 65.8 °F /  18.8 °C 29.8in /  1009.3hPa ESE 7.4mph /  11.9km/h 13mph /  20.9km/h 61.2% 0in /  0.0mm
02:39 80.2 °F /  26.8 °C 66 °F /  18.9 °C 29.8in /  1009.2hPa ESE 6.5mph /  10.5km/h 10mph /  16.1km/h 62% 0in /  0.0mm
02:44 80.2 °F /  26.8 °C 66.2 °F /  19 °C 29.8in /  1009.2hPa NE 4.7mph /  7.6km/h 8.1mph /  13km/h 62.5% 0in /  0.0mm
02:49 80.1 °F /  26.7 °C 66.4 °F /  19.1 °C 29.8in /  1009.2hPa North 4.2mph /  6.7km/h 8mph /  12.9km/h 63% 0in /  0.0mm
02:54 80.1 °F /  26.7 °C 66.4 °F /  19.1 °C 29.8in /  1009.1hPa Este 3.1mph /  5km/h 6.2mph /  10km/h 63% 0in /  0.0mm
02:59 80.1 °F /  26.7 °C 66.4 °F /  19.1 °C 29.8in /  1009.1hPa ENE 3.1mph /  5km/h 7.4mph /  11.9km/h 63% 0in /  0.0mm
03:04 80.1 °F /  26.7 °C 66.2 °F /  19 °C 29.8in /  1009.2hPa ENE 3.1mph /  5km/h 7mph /  11.3km/h 63% 0in /  0.0mm
03:09 79.9 °F /  26.6 °C 66.2 °F /  19 °C 29.8in /  1009.2hPa ENE 3.1mph /  5km/h 7mph /  11.3km/h 63% 0in /  0.0mm
03:14 79.9 °F /  26.6 °C 66.2 °F /  19 °C 29.8in /  1009.2hPa NE 3.1mph /  5km/h 6.9mph /  11.1km/h 63.2% 0in /  0.0mm
03:19 79.5 °F /  26.4 °C 66.4 °F /  19.1 °C 29.8in /  1009.2hPa NE 3.5mph /  5.6km/h 7mph /  11.3km/h 64% 0in /  0.0mm
03:24 79.3 °F /  26.3 °C 66.4 °F /  19.1 °C 29.8in /  1009.0hPa ENE 4.3mph /  6.9km/h 7mph /  11.3km/h 64.8% 0in /  0.0mm
03:29 79.3 °F /  26.3 °C 66.6 °F /  19.2 °C 29.8in /  1009.0hPa ENE 3.6mph /  5.8km/h 5.4mph /  8.7km/h 65% 0in /  0.0mm
03:34 79.3 °F /  26.3 °C 66.6 °F /  19.2 °C 29.8in /  1009.0hPa ESE 2mph /  3.2km/h 6mph /  9.7km/h 65.1% 0in /  0.0mm
03:39 79.2 °F /  26.2 °C 66.7 °F /  19.3 °C 29.8in /  1009.0hPa Este 2.5mph /  4km/h 6mph /  9.7km/h 66% 0in /  0.0mm
03:44 79 °F /  26.1 °C 66.7 °F /  19.3 °C 29.8in /  1009.0hPa NE 3.6mph /  5.8km/h 6.2mph /  10km/h 66.6% 0in /  0.0mm
03:49 78.6 °F /  25.9 °C 66.7 °F /  19.3 °C 29.8in /  1009.0hPa NNE 3.6mph /  5.8km/h 6mph /  9.7km/h 67% 0in /  0.0mm
03:54 78.4 °F /  25.8 °C 66.7 °F /  19.3 °C 29.8in /  1008.8hPa NE 3.6mph /  5.8km/h 6mph /  9.7km/h 67.3% 0in /  0.0mm
03:59 78.3 °F /  25.7 °C 66.9 °F /  19.4 °C 29.8in /  1008.8hPa NE 3.4mph /  5.4km/h 5mph /  8km/h 68% 0in /  0.0mm
04:04 78.3 °F /  25.7 °C 66.7 °F /  19.3 °C 29.8in /  1009.0hPa NE 2.9mph /  4.7km/h 5mph /  8km/h 68% 0in /  0.0mm
04:09 78.3 °F /  25.7 °C 67.1 °F /  19.5 °C 29.8in /  1009.0hPa ENE 2.7mph /  4.4km/h 5mph /  8km/h 68.6% 0in /  0.0mm
04:14 78.3 °F /  25.7 °C 67.3 °F /  19.6 °C 29.8in /  1009.0hPa Este 2.4mph /  3.9km/h 5mph /  8km/h 69% 0in /  0.0mm
04:19 78.3 °F /  25.7 °C 67.1 °F /  19.5 °C 29.8in /  1009.3hPa SE 2.5mph /  4.1km/h 5.2mph /  8.4km/h 68.5% 0in /  0.0mm
04:24 78.3 °F /  25.7 °C 67.3 °F /  19.6 °C 29.8in /  1009.3hPa SSE 2.9mph /  4.7km/h 5.2mph /  8.4km/h 68.9% 0in /  0.0mm
04:29 78.3 °F /  25.7 °C 67.3 °F /  19.6 °C 29.8in /  1009.3hPa SE 2.7mph /  4.4km/h 5mph /  8km/h 69% 0in /  0.0mm
04:34 78.3 °F /  25.7 °C 66.9 °F /  19.4 °C 29.8in /  1009.7hPa Sur 2.4mph /  3.9km/h 7.4mph /  11.9km/h 68.2% 0in /  0.0mm
04:39 78.4 °F /  25.8 °C 66.9 °F /  19.4 °C 29.8in /  1009.7hPa Sur 3mph /  4.8km/h 9.2mph /  14.8km/h 68% 0in /  0.0mm
04:44 78.6 °F /  25.9 °C 67.1 °F /  19.5 °C 29.8in /  1009.7hPa SSO 4.3mph /  6.9km/h 9mph /  14.5km/h 68% 0in /  0.0mm
04:49 78.6 °F /  25.9 °C 67.5 °F /  19.7 °C 29.8in /  1009.7hPa OSO 4.2mph /  6.8km/h 8mph /  12.9km/h 68.5% 0in /  0.0mm
04:54 78.4 °F /  25.8 °C 67.1 °F /  19.5 °C 29.8in /  1008.3hPa NO 4mph /  6.5km/h 9.7mph /  15.6km/h 68.1% 0in /  0.0mm
04:59 78.3 °F /  25.7 °C 67.1 °F /  19.5 °C 29.8in /  1008.3hPa NO 4.3mph /  6.9km/h 10mph /  16.1km/h 68.6% 0in /  0.0mm
05:04 77.9 °F /  25.5 °C 67.3 °F /  19.6 °C 29.8in /  1008.3hPa NNO 4.7mph /  7.6km/h 10mph /  16.1km/h 69.8% 0in /  0.0mm
05:09 77.5 °F /  25.3 °C 67.5 °F /  19.7 °C 29.8in /  1008.0hPa NNO 4.5mph /  7.2km/h 8.5mph /  13.7km/h 70.8% 0in /  0.0mm
05:14 77.4 °F /  25.2 °C 67.6 °F /  19.8 °C 29.8in /  1008.0hPa NNO 4mph /  6.5km/h 9mph /  14.5km/h 71.9% 0in /  0.0mm
05:19 77.2 °F /  25.1 °C 67.5 °F /  19.7 °C 29.8in /  1008.0hPa NO 3.7mph /  6km/h 7mph /  11.3km/h 72% 0in /  0.0mm
05:24 77.2 °F /  25.1 °C 67.8 °F /  19.9 °C 29.8in /  1007.8hPa Oeste 3.1mph /  5km/h 6mph /  9.7km/h 72.6% 0in /  0.0mm
05:29 77.2 °F /  25.1 °C 67.8 °F /  19.9 °C 29.8in /  1007.8hPa OSO 2.7mph /  4.3km/h 4mph /  6.4km/h 73% 0in /  0.0mm
05:34 77.2 °F /  25.1 °C 67.8 °F /  19.9 °C 29.8in /  1008.3hPa SO 1.8mph /  2.9km/h 4.7mph /  7.6km/h 73% 0in /  0.0mm
05:39 77.2 °F /  25.1 °C 68 °F /  20 °C 29.8in /  1008.3hPa Oeste 2mph /  3.2km/h 5mph /  8km/h 73% 0in /  0.0mm
05:44 77.4 °F /  25.2 °C 67.8 °F /  19.9 °C 29.8in /  1008.3hPa ONO 2.4mph /  3.9km/h 3.6mph /  5.8km/h 72.6% 0in /  0.0mm
05:49 77.4 °F /  25.2 °C 67.6 °F /  19.8 °C 29.8in /  1008.3hPa ESE 2.1mph /  3.3km/h 4.6mph /  7.4km/h 72.1% 0in /  0.0mm
05:54 77.5 °F /  25.3 °C 67.6 °F /  19.8 °C 29.8in /  1008.0hPa NE 1.4mph /  2.2km/h 5mph /  8km/h 72% 0in /  0.0mm
05:59 77.4 °F /  25.2 °C 67.6 °F /  19.8 °C 29.8in /  1008.0hPa NE 1.6mph /  2.5km/h 5mph /  8km/h 72% 0in /  0.0mm
06:04 77.4 °F /  25.2 °C 67.6 °F /  19.8 °C 29.8in /  1008.7hPa Este 1.8mph /  2.9km/h 6.9mph /  11.1km/h 72.1% 0in /  0.0mm
06:09 77.4 °F /  25.2 °C 68 °F /  20 °C 29.8in /  1008.7hPa SSE 2.2mph /  3.6km/h 7mph /  11.3km/h 73% 0in /  0.0mm
06:14 77.4 °F /  25.2 °C 68 °F /  20 °C 29.8in /  1008.7hPa ESE 3.1mph /  5km/h 6.2mph /  10km/h 73% 0in /  0.0mm
06:19 77.4 °F /  25.2 °C 68 °F /  20 °C 29.8in /  1008.8hPa Sur 3.1mph /  5km/h 6mph /  9.7km/h 73% 0in /  0.0mm
06:24 77.2 °F /  25.1 °C 68 °F /  20 °C 29.8in /  1008.8hPa OSO 3.1mph /  5km/h 6.2mph /  10km/h 73.2% 0in /  0.0mm
06:29 77.4 °F /  25.2 °C 68 °F /  20 °C 29.8in /  1008.8hPa OSO 3.1mph /  5km/h 6mph /  9.7km/h 73% 0in /  0.0mm
06:34 77.4 °F /  25.2 °C 68 °F /  20 °C 29.8in /  1008.8hPa Oeste 3.1mph /  5km/h 5mph /  8km/h 73% 0in /  0.0mm
06:39 77.4 °F /  25.2 °C 68 °F /  20 °C 29.8in /  1008.7hPa ONO 2.9mph /  4.6km/h 5mph /  8km/h 73% 0in /  0.0mm
06:44 77.4 °F /  25.2 °C 68 °F /  20 °C 29.8in /  1008.7hPa ONO 2.4mph /  3.9km/h 5mph /  8km/h 73% 0in /  0.0mm
06:49 77.2 °F /  25.1 °C 67.8 °F /  19.9 °C 29.8in /  1008.9hPa ONO 1.6mph /  2.6km/h 2mph /  3.2km/h 73% 0in /  0.0mm
06:54 77.2 °F /  25.1 °C 67.8 °F /  19.9 °C 29.8in /  1008.9hPa Calm   1mph /  1.6km/h 73% 0in /  0.0mm
06:59 77.2 °F /  25.1 °C 67.8 °F /  19.9 °C 29.8in /  1008.9hPa Calm     73% 0in /  0.0mm
07:04 77.2 °F /  25.1 °C 67.8 °F /  19.9 °C 29.8in /  1009.0hPa Calm   3.6mph /  5.8km/h 73% 0in /  0.0mm
07:09 77.2 °F /  25.1 °C 68 °F /  20 °C 29.8in /  1009.0hPa NO 0.4mph /  0.7km/h 4mph /  6.4km/h 73.1% 0in /  0.0mm
07:14 77 °F /  25 °C 68 °F /  20 °C 29.8in /  1009.0hPa NO 1.4mph /  2.2km/h 4mph /  6.4km/h 74% 0in /  0.0mm
07:19 76.8 °F /  24.9 °C 67.8 °F /  19.9 °C 29.8in /  1009.2hPa NO 0.9mph /  1.5km/h 4mph /  6.4km/h 74% 0in /  0.0mm
07:24 76.8 °F /  24.9 °C 67.8 °F /  19.9 °C 29.8in /  1009.2hPa Calm   6.2mph /  10km/h 74% 0in /  0.0mm
07:29 76.8 °F /  24.9 °C 67.8 °F /  19.9 °C 29.8in /  1009.2hPa Sur 1mph /  1.6km/h 6mph /  9.7km/h 74% 0in /  0.0mm
07:34 76.8 °F /  24.9 °C 67.8 °F /  19.9 °C 29.8in /  1009.2hPa SSE 3.1mph /  5km/h 5.8mph /  9.3km/h 74% 0in /  0.0mm
07:39 77 °F /  25 °C 68 °F /  20 °C 29.8in /  1009.0hPa SSE 3.1mph /  5km/h 6mph /  9.7km/h 74% 0in /  0.0mm
07:44 77.2 °F /  25.1 °C 68.2 °F /  20.1 °C 29.8in /  1009.0hPa SSE 3.1mph /  5km/h 5mph /  8km/h 74% 0in /  0.0mm
07:49 77.2 °F /  25.1 °C 68.2 °F /  20.1 °C 29.8in /  1009.0hPa Este 2.7mph /  4.4km/h 4.7mph /  7.6km/h 74% 0in /  0.0mm
07:54 77.2 °F /  25.1 °C 68.2 °F /  20.1 °C 29.8in /  1008.9hPa ESE 2mph /  3.2km/h 5.8mph /  9.3km/h 74% 0in /  0.0mm
07:59 76.8 °F /  24.9 °C 68.2 °F /  20.1 °C 29.8in /  1008.9hPa ENE 2.5mph /  4.1km/h 6mph /  9.7km/h 74.7% 0in /  0.0mm
08:04 76.6 °F /  24.8 °C 67.8 °F /  19.9 °C 29.8in /  1008.9hPa ENE 3.6mph /  5.8km/h 5.9mph /  9.5km/h 74.3% 0in /  0.0mm
08:09 76.6 °F /  24.8 °C 67.6 °F /  19.8 °C 29.8in /  1008.9hPa NE 3.4mph /  5.5km/h 6mph /  9.7km/h 74% 0in /  0.0mm
08:14 76.6 °F /  24.8 °C 67.6 °F /  19.8 °C 29.8in /  1008.9hPa ENE 3.1mph /  5km/h 5mph /  8km/h 73.9% 0in /  0.0mm
08:19 76.8 °F /  24.9 °C 67.6 °F /  19.8 °C 29.8in /  1009.1hPa NNE 2.9mph /  4.6km/h 5.9mph /  9.5km/h 73.7% 0in /  0.0mm
08:24 76.8 °F /  24.9 °C 67.8 °F /  19.9 °C 29.8in /  1009.1hPa NE 2.4mph /  3.9km/h 8.1mph /  13km/h 74% 0in /  0.0mm
08:29 76.6 °F /  24.8 °C 68.2 °F /  20.1 °C 29.8in /  1009.1hPa NNE 3.3mph /  5.3km/h 8.5mph /  13.7km/h 75.1% 0in /  0.0mm
08:34 76.5 °F /  24.7 °C 68.2 °F /  20.1 °C 29.8in /  1009.1hPa North 5.4mph /  8.7km/h 9mph /  14.5km/h 75.5% 0in /  0.0mm
08:39 76.5 °F /  24.7 °C 68.2 °F /  20.1 °C 29.8in /  1008.8hPa NO 5mph /  8km/h 6.9mph /  11.1km/h 75.7% 0in /  0.0mm
08:44 76.5 °F /  24.7 °C 68.2 °F /  20.1 °C 29.8in /  1008.8hPa ONO 4mph /  6.5km/h 7mph /  11.3km/h 76% 0in /  0.0mm
08:49 76.5 °F /  24.7 °C 68.2 °F /  20.1 °C 29.8in /  1009.1hPa Oeste 4.1mph /  6.6km/h 7mph /  11.3km/h 75.6% 0in /  0.0mm
08:54 76.5 °F /  24.7 °C 68 °F /  20 °C 29.8in /  1009.1hPa Oeste 4.3mph /  6.9km/h 6mph /  9.7km/h 75% 0in /  0.0mm
08:59 76.6 °F /  24.8 °C 68 °F /  20 °C 29.8in /  1009.1hPa Oeste 3.5mph /  5.7km/h 4.6mph /  7.4km/h 75% 0in /  0.0mm
09:04 76.6 °F /  24.8 °C 68.2 °F /  20.1 °C 29.8in /  1009.5hPa SO 2mph /  3.2km/h 5mph /  8km/h 75% 0in /  0.0mm
09:09 76.8 °F /  24.9 °C 68.4 °F /  20.2 °C 29.8in /  1009.5hPa OSO 2mph /  3.2km/h 5mph /  8km/h 75.1% 0in /  0.0mm
09:14 76.8 °F /  24.9 °C 68.5 °F /  20.3 °C 29.8in /  1009.5hPa OSO 2mph /  3.2km/h 3mph /  4.8km/h 75.3% 0in /  0.0mm
09:19 77.2 °F /  25.1 °C 68.5 °F /  20.3 °C 29.8in /  1009.5hPa OSO 1.4mph /  2.2km/h 5.4mph /  8.7km/h 75% 0in /  0.0mm
09:24 77.2 °F /  25.1 °C 68.5 °F /  20.3 °C 29.8in /  1009.1hPa Calm   6mph /  9.7km/h 75% 0in /  0.0mm
09:29 77.2 °F /  25.1 °C 68.2 °F /  20.1 °C 29.8in /  1009.1hPa ONO 0.9mph /  1.5km/h 5mph /  8km/h 74% 0in /  0.0mm
09:34 77.2 °F /  25.1 °C 68.2 °F /  20.1 °C 29.8in /  1010.3hPa NO 2.9mph /  4.7km/h 5mph /  8km/h 73.9% 0in /  0.0mm
09:39 77.4 °F /  25.2 °C 68.5 °F /  20.3 °C 29.8in /  1010.3hPa NO 2.4mph /  3.9km/h 4mph /  6.4km/h 74.4% 0in /  0.0mm
09:44 77.5 °F /  25.3 °C 68.4 °F /  20.2 °C 29.8in /  1010.3hPa North 1.4mph /  2.2km/h 5.9mph /  9.5km/h 73.7% 0in /  0.0mm
09:49 77.5 °F /  25.3 °C 68.2 °F /  20.1 °C 29.8in /  1010.3hPa NE 1.9mph /  3km/h 6.9mph /  11.1km/h 73% 0in /  0.0mm
09:54 77.4 °F /  25.2 °C 68.2 °F /  20.1 °C 29.8in /  1009.9hPa NE 2.9mph /  4.7km/h 7mph /  11.3km/h 73.5% 0in /  0.0mm
09:59 77.4 °F /  25.2 °C 68.7 °F /  20.4 °C 29.8in /  1009.9hPa ENE 2.7mph /  4.4km/h 6mph /  9.7km/h 74.5% 0in /  0.0mm
10:04 77.5 °F /  25.3 °C 69.1 °F /  20.6 °C 29.8in /  1009.9hPa NE 2.4mph /  3.9km/h 5.9mph /  9.5km/h 75% 0in /  0.0mm
10:09 77.7 °F /  25.4 °C 69.3 °F /  20.7 °C 29.8in /  1009.6hPa NNE 2.9mph /  4.7km/h 8.1mph /  13km/h 75.3% 0in /  0.0mm
10:14 77.9 °F /  25.5 °C 69.3 °F /  20.7 °C 29.8in /  1009.6hPa ENE 4mph /  6.5km/h 8mph /  12.9km/h 75% 0in /  0.0mm
10:19 78.1 °F /  25.6 °C 69.4 °F /  20.8 °C 29.8in /  1010.0hPa Este 3.7mph /  6km/h 7mph /  11.3km/h 75% 0in /  0.0mm
10:24 78.3 °F /  25.7 °C 69.3 °F /  20.7 °C 29.8in /  1010.0hPa ESE 3.1mph /  5km/h 4.6mph /  7.4km/h 74.1% 0in /  0.0mm
10:29 78.4 °F /  25.8 °C 69.6 °F /  20.9 °C 29.8in /  1010.0hPa ENE 2.7mph /  4.4km/h 5mph /  8km/h 74% 0in /  0.0mm
10:34 79.2 °F /  26.2 °C 69.6 °F /  20.9 °C 29.8in /  1010.0hPa ENE 2mph /  3.2km/h 5mph /  8km/h 72.6% 0in /  0.0mm
10:39 79.5 °F /  26.4 °C 69.3 °F /  20.7 °C 29.8in /  1010.0hPa NNO 2mph /  3.2km/h 5.9mph /  9.5km/h 71% 0in /  0.0mm
10:44 79.3 °F /  26.3 °C 68.7 °F /  20.4 °C 29.8in /  1010.0hPa NNO 2mph /  3.2km/h 6mph /  9.7km/h 70% 0in /  0.0mm
10:49 79.3 °F /  26.3 °C 68.7 °F /  20.4 °C 29.8in /  1010.0hPa NE 2.4mph /  3.8km/h 7.6mph /  12.2km/h 69.8% 0in /  0.0mm
10:54 79.2 °F /  26.2 °C 68.2 °F /  20.1 °C 29.8in /  1009.7hPa NNE 3.1mph /  5km/h 8.1mph /  13km/h 69% 0in /  0.0mm
10:59 79.3 °F /  26.3 °C 67.8 °F /  19.9 °C 29.8in /  1009.7hPa NE 3.1mph /  5km/h 6mph /  9.7km/h 67.9% 0in /  0.0mm
11:04 79.5 °F /  26.4 °C 67.6 °F /  19.8 °C 29.8in /  1009.7hPa NE 3.1mph /  5km/h 6.9mph /  11.1km/h 66.8% 0in /  0.0mm
11:09 80.1 °F /  26.7 °C 67.3 °F /  19.6 °C 29.8in /  1009.4hPa NNE 3.3mph /  5.3km/h 7.4mph /  11.9km/h 65.1% 0in /  0.0mm
11:14 80.1 °F /  26.7 °C 66.7 °F /  19.3 °C 29.8in /  1009.4hPa NE 3.6mph /  5.8km/h 7mph /  11.3km/h 64% 0in /  0.0mm
11:19 80.1 °F /  26.7 °C 67.1 °F /  19.5 °C 29.8in /  1009.7hPa NNE 3.9mph /  6.2km/h 6mph /  9.7km/h 64.7% 0in /  0.0mm
11:24 80.6 °F /  27 °C 67.5 °F /  19.7 °C 29.8in /  1009.7hPa NE 4.3mph /  6.9km/h 9.2mph /  14.8km/h 64.1% 0in /  0.0mm
11:29 80.8 °F /  27.1 °C 67.5 °F /  19.7 °C 29.8in /  1009.7hPa NNE 4.2mph /  6.8km/h 9mph /  14.5km/h 63.9% 0in /  0.0mm
11:34 81 °F /  27.2 °C 67.3 °F /  19.6 °C 29.8in /  1009.7hPa NE 4mph /  6.5km/h 6.2mph /  10km/h 62.9% 0in /  0.0mm
11:39 81 °F /  27.2 °C 66.4 °F /  19.1 °C 29.8in /  1009.6hPa NE 3.7mph /  6km/h 6.2mph /  10km/h 61.2% 0in /  0.0mm
11:44 81 °F /  27.2 °C 66.7 °F /  19.3 °C 29.8in /  1009.6hPa NE 3.1mph /  5km/h 6mph /  9.7km/h 61.8% 0in /  0.0mm
11:49 81.1 °F /  27.3 °C 66.6 °F /  19.2 °C 29.8in /  1009.6hPa ENE 3mph /  4.9km/h 6.2mph /  10km/h 61.4% 0in /  0.0mm
11:54 81.1 °F /  27.3 °C 66.7 °F /  19.3 °C 29.8in /  1009.4hPa ENE 2.9mph /  4.7km/h 6mph /  9.7km/h 61.8% 0in /  0.0mm
11:59 81.1 °F /  27.3 °C 67.5 °F /  19.7 °C 29.8in /  1009.4hPa Este 3.2mph /  5.1km/h 7.4mph /  11.9km/h 63.2% 0in /  0.0mm
12:04 81.1 °F /  27.3 °C 67.8 °F /  19.9 °C 29.8in /  1009.4hPa ENE 3.6mph /  5.8km/h 8.1mph /  13km/h 64% 0in /  0.0mm
12:09 81 °F /  27.2 °C 67.8 °F /  19.9 °C 29.8in /  1009.3hPa ENE 3.9mph /  6.3km/h 8.5mph /  13.7km/h 64.2% 0in /  0.0mm
12:14 81.1 °F /  27.3 °C 67.5 °F /  19.7 °C 29.8in /  1009.3hPa ENE 4.7mph /  7.6km/h 9mph /  14.5km/h 63.3% 0in /  0.0mm
12:19 81.1 °F /  27.3 °C 67.3 °F /  19.6 °C 29.8in /  1009.5hPa Este 4.7mph /  7.6km/h 9mph /  14.5km/h 62.8% 0in /  0.0mm
12:24 81.1 °F /  27.3 °C 67.1 °F /  19.5 °C 29.8in /  1009.5hPa NE 4.7mph /  7.6km/h 8.7mph /  14km/h 62% 0in /  0.0mm
12:29 81.3 °F /  27.4 °C 67.5 °F /  19.7 °C 29.8in /  1009.5hPa NNE 5.1mph /  8.2km/h 12.7mph /  20.4km/h 62.9% 0in /  0.0mm
12:34 81.5 °F /  27.5 °C 68.2 °F /  20.1 °C 29.8in /  1009.5hPa NE 5.9mph /  9.5km/h 13mph /  20.9km/h 64% 0in /  0.0mm
12:39 81.9 °F /  27.7 °C 68.5 °F /  20.3 °C 29.8in /  1009.5hPa ENE 6mph /  9.7km/h 11mph /  17.7km/h 64.1% 0in /  0.0mm
12:44 82 °F /  27.8 °C 68 °F /  20 °C 29.8in /  1009.5hPa NE 6.2mph /  10km/h 13.7mph /  22km/h 62.5% 0in /  0.0mm
12:49 82 °F /  27.8 °C 67.1 °F /  19.5 °C 29.8in /  1009.5hPa NE 6.8mph /  10.9km/h 14mph /  22.5km/h 60.4% 0in /  0.0mm
12:54 82.2 °F /  27.9 °C 66.9 °F /  19.4 °C 29.8in /  1009.2hPa NE 8.1mph /  13km/h 13mph /  20.9km/h 60% 0in /  0.0mm
12:59 82.6 °F /  28.1 °C 67.1 °F /  19.5 °C 29.8in /  1009.2hPa NE 7.3mph /  11.7km/h 11.5mph /  18.5km/h 59.6% 0in /  0.0mm
13:04 82.6 °F /  28.1 °C 66.2 °F /  19 °C 29.8in /  1009.3hPa NE 5.9mph /  9.5km/h 12mph /  19.3km/h 57.6% 0in /  0.0mm
13:09 82.8 °F /  28.2 °C 65.5 °F /  18.6 °C 29.8in /  1009.3hPa NE 6.4mph /  10.3km/h 13.8mph /  22.2km/h 56.2% 0in /  0.0mm
13:14 82.8 °F /  28.2 °C 64.6 °F /  18.1 °C 29.8in /  1009.3hPa NE 7.4mph /  11.9km/h 14mph /  22.5km/h 54.5% 0in /  0.0mm
13:19 82.6 °F /  28.1 °C 63.7 °F /  17.6 °C 29.8in /  1009.3hPa NNE 7.6mph /  12.3km/h 15.2mph /  24.5km/h 52.9% 0in /  0.0mm
13:24 82.6 °F /  28.1 °C 63.1 °F /  17.3 °C 29.8in /  1009.1hPa NE 8.1mph /  13km/h 15mph /  24.1km/h 52% 0in /  0.0mm
13:29 82.8 °F /  28.2 °C 63.9 °F /  17.7 °C 29.8in /  1009.1hPa NNE 8.3mph /  13.4km/h 15mph /  24.1km/h 53% 0in /  0.0mm
13:34 82.9 °F /  28.3 °C 64.2 °F /  17.9 °C 29.8in /  1009.2hPa NE 8.7mph /  14km/h 14mph /  22.5km/h 53.5% 0in /  0.0mm
13:39 83.1 °F /  28.4 °C 64.6 °F /  18.1 °C 29.8in /  1009.2hPa NNE 8.6mph /  13.9km/h 17.5mph /  28.2km/h 53.7% 0in /  0.0mm
13:44 83.5 °F /  28.6 °C 64.6 °F /  18.1 °C 29.8in /  1009.2hPa NE 8.5mph /  13.7km/h 17mph /  27.4km/h 53% 0in /  0.0mm
13:49 84.2 °F /  29 °C 63.9 °F /  17.7 °C 29.8in /  1009.2hPa NE 8.7mph /  14km/h 16mph /  25.7km/h 50.6% 0in /  0.0mm
13:54 84.6 °F /  29.2 °C 62.4 °F /  16.9 °C 29.8in /  1009.1hPa NE 9.2mph /  14.8km/h 15.6mph /  25.1km/h 47.4% 0in /  0.0mm
13:59 84.6 °F /  29.2 °C 62.8 °F /  17.1 °C 29.8in /  1009.1hPa NE 8.9mph /  14.4km/h 16mph /  25.7km/h 48% 0in /  0.0mm
14:04 84.6 °F /  29.2 °C 62.8 °F /  17.1 °C 29.8in /  1009.2hPa NE 8.5mph /  13.7km/h 13mph /  20.9km/h 48% 0in /  0.0mm
14:09 84.6 °F /  29.2 °C 62.6 °F /  17 °C 29.8in /  1009.2hPa NE 8.2mph /  13.2km/h 15mph /  24.1km/h 47.8% 0in /  0.0mm
14:14 84.6 °F /  29.2 °C 62.6 °F /  17 °C 29.8in /  1009.2hPa NE 7.6mph /  12.2km/h 15mph /  24.1km/h 48% 0in /  0.0mm
14:19 84.6 °F /  29.2 °C 62.8 °F /  17.1 °C 29.8in /  1009.2hPa NE 7.9mph /  12.7km/h 15mph /  24.1km/h 48.5% 0in /  0.0mm
14:24 84.7 °F /  29.3 °C 63.5 °F /  17.5 °C 29.8in /  1009.1hPa NE 8.5mph /  13.7km/h 14mph /  22.5km/h 49% 0in /  0.0mm
14:29 84.9 °F /  29.4 °C 63.9 °F /  17.7 °C 29.8in /  1009.1hPa NE 8.1mph /  13.1km/h 13.8mph /  22.2km/h 49.5% 0in /  0.0mm
14:34 84.9 °F /  29.4 °C 64.4 °F /  18 °C 29.8in /  1009.1hPa NE 7.4mph /  11.9km/h 14mph /  22.5km/h 50.3% 0in /  0.0mm
14:39 85.1 °F /  29.5 °C 64.4 °F /  18 °C 29.8in /  1008.7hPa NE 7.5mph /  12km/h 16.3mph /  26.2km/h 50% 0in /  0.0mm
14:44 85.3 °F /  29.6 °C 63.7 °F /  17.6 °C 29.8in /  1008.7hPa NE 7.6mph /  12.2km/h 16.3mph /  26.2km/h 48.8% 0in /  0.0mm
14:49 85.3 °F /  29.6 °C 63.5 °F /  17.5 °C 29.8in /  1008.7hPa NNE 7.6mph /  12.2km/h 16mph /  25.7km/h 48.2% 0in /  0.0mm
14:54 85.5 °F /  29.7 °C 61.5 °F /  16.4 °C 29.8in /  1008.6hPa NE 7.6mph /  12.2km/h 13.8mph /  22.2km/h 44.7% 0in /  0.0mm
14:59 85.8 °F /  29.9 °C 59.2 °F /  15.1 °C 29.8in /  1008.6hPa ENE 8mph /  12.8km/h 18.4mph /  29.6km/h 40.7% 0in /  0.0mm
15:04 86.2 °F /  30.1 °C 58.5 °F /  14.7 °C 29.8in /  1008.6hPa NE 8.5mph /  13.7km/h 18mph /  29km/h 39.1% 0in /  0.0mm
15:09 86.4 °F /  30.2 °C 58.8 °F /  14.9 °C 29.8in /  1008.5hPa NE 7.7mph /  12.4km/h 14mph /  22.5km/h 39.4% 0in /  0.0mm
15:14 86.2 °F /  30.1 °C 59 °F /  15 °C 29.8in /  1008.5hPa NE 5.9mph /  9.5km/h 14mph /  22.5km/h 39.9% 0in /  0.0mm
15:19 86.4 °F /  30.2 °C 59.2 °F /  15.1 °C 29.8in /  1008.5hPa NE 6.4mph /  10.3km/h 15.6mph /  25.1km/h 39.9% 0in /  0.0mm
15:24 86.5 °F /  30.3 °C 59.5 °F /  15.3 °C 29.8in /  1008.1hPa NE 7.6mph /  12.2km/h 18.4mph /  29.6km/h 40.4% 0in /  0.0mm
15:29 86.4 °F /  30.2 °C 60.8 °F /  16 °C 29.8in /  1008.1hPa NE 8.6mph /  13.8km/h 18mph /  29km/h 42.4% 0in /  0.0mm
15:34 86.4 °F /  30.2 °C 61 °F /  16.1 °C 29.8in /  1008.1hPa NE 10.7mph /  17.2km/h 16.1mph /  25.9km/h 42.7% 0in /  0.0mm
15:39 86.4 °F /  30.2 °C 60.4 °F /  15.8 °C 29.8in /  1008.1hPa NE 10.1mph /  16.2km/h 16.3mph /  26.2km/h 41.9% 0in /  0.0mm
15:44 86.4 °F /  30.2 °C 61 °F /  16.1 °C 29.8in /  1008.1hPa NNE 8.7mph /  14km/h 16.1mph /  25.9km/h 42.6% 0in /  0.0mm
15:49 86.4 °F /  30.2 °C 59.9 °F /  15.5 °C 29.8in /  1008.1hPa NNE 9mph /  14.5km/h 15mph /  24.1km/h 41.1% 0in /  0.0mm
15:54 86 °F /  30 °C 58.8 °F /  14.9 °C 29.8in /  1008.0hPa NE 9.7mph /  15.6km/h 15.2mph /  24.5km/h 40.1% 0in /  0.0mm
15:59 85.6 °F /  29.8 °C 58.8 °F /  14.9 °C 29.8in /  1008.0hPa NNE 9.7mph /  15.6km/h 16.1mph /  25.9km/h 40.3% 0in /  0.0mm
16:04 85.5 °F /  29.7 °C 58.8 °F /  14.9 °C 29.8in /  1008.0hPa NE 9.7mph /  15.6km/h 16.1mph /  25.9km/h 40.6% 0in /  0.0mm
16:09 85.3 °F /  29.6 °C 59.7 °F /  15.4 °C 29.8in /  1008.0hPa NE 9.9mph /  15.9km/h 17.5mph /  28.2km/h 42.1% 0in /  0.0mm
16:14 85.3 °F /  29.6 °C 60.6 °F /  15.9 °C 29.8in /  1008.0hPa NNE 10.2mph /  16.4km/h 17mph /  27.4km/h 43.7% 0in /  0.0mm
16:19 84.9 °F /  29.4 °C 61.3 °F /  16.3 °C 29.8in /  1008.0hPa NNE 10.2mph /  16.4km/h 16.1mph /  25.9km/h 45.2% 0in /  0.0mm
16:24 84.9 °F /  29.4 °C 62.6 °F /  17 °C 29.8in /  1007.8hPa NE 10.2mph /  16.4km/h 16mph /  25.7km/h 47.5% 0in /  0.0mm
16:29 84.7 °F /  29.3 °C 63.7 °F /  17.6 °C 29.8in /  1007.8hPa NNE 10.1mph /  16.3km/h 16.1mph /  25.9km/h 49.4% 0in /  0.0mm
16:34 84.4 °F /  29.1 °C 64.4 °F /  18 °C 29.8in /  1007.9hPa NE 10mph /  16.1km/h 17.3mph /  27.8km/h 51.2% 0in /  0.0mm
16:39 84 °F /  28.9 °C 63.9 °F /  17.7 °C 29.8in /  1007.9hPa NE 9.6mph /  15.5km/h 17mph /  27.4km/h 50.7% 0in /  0.0mm
16:44 83.8 °F /  28.8 °C 63.3 °F /  17.4 °C 29.8in /  1007.9hPa NE 8.7mph /  14km/h 19.6mph /  31.5km/h 50.2% 0in /  0.0mm
16:49 83.8 °F /  28.8 °C 63.7 °F /  17.6 °C 29.8in /  1007.9hPa NE 9.2mph /  14.8km/h 20mph /  32.2km/h 50.9% 0in /  0.0mm
16:54 83.8 °F /  28.8 °C 63.7 °F /  17.6 °C 29.8in /  1007.9hPa NE 10.2mph /  16.4km/h 15.2mph /  24.5km/h 51% 0in /  0.0mm
16:59 83.8 °F /  28.8 °C 63.5 °F /  17.5 °C 29.8in /  1007.9hPa NE 9.8mph /  15.8km/h 19.2mph /  30.9km/h 50.6% 0in /  0.0mm
17:04 83.8 °F /  28.8 °C 62.6 °F /  17 °C 29.8in /  1007.9hPa NNE 9.2mph /  14.8km/h 20mph /  32.2km/h 48.9% 0in /  0.0mm
17:09 84 °F /  28.9 °C 62.2 °F /  16.8 °C 29.8in /  1007.9hPa NE 10.1mph /  16.2km/h 18.5mph /  29.8km/h 48% 0in /  0.0mm
17:14 84.2 °F /  29 °C 62.4 °F /  16.9 °C 29.8in /  1007.9hPa NNE 11.8mph /  19km/h 19.6mph /  31.5km/h 48.2% 0in /  0.0mm
17:19 84.2 °F /  29 °C 63.3 °F /  17.4 °C 29.8in /  1007.9hPa NE 12mph /  19.3km/h 20mph /  32.2km/h 49.5% 0in /  0.0mm
17:24 84.4 °F /  29.1 °C 64.9 °F /  18.3 °C 29.8in /  1007.8hPa NE 12.3mph /  19.8km/h 20mph /  32.2km/h 52.1% 0in /  0.0mm
17:29 84.6 °F /  29.2 °C 66.6 °F /  19.2 °C 29.8in /  1007.8hPa NNE 12.2mph /  19.6km/h 21.3mph /  34.3km/h 55.2% 0in /  0.0mm
17:34 84.4 °F /  29.1 °C 67.3 °F /  19.6 °C 29.8in /  1007.8hPa NNE 11.8mph /  19km/h 21mph /  33.8km/h 56.5% 0in /  0.0mm
17:39 84.4 °F /  29.1 °C 67.8 °F /  19.9 °C 29.8in /  1007.6hPa NE 12.2mph /  19.6km/h 24.2mph /  38.9km/h 57.7% 0in /  0.0mm
17:44 84.6 °F /  29.2 °C 68.5 °F /  20.3 °C 29.8in /  1007.6hPa NE 13mph /  20.9km/h 24mph /  38.6km/h 58.6% 0in /  0.0mm
17:49 84.7 °F /  29.3 °C 68.5 °F /  20.3 °C 29.8in /  1007.6hPa NE 12.6mph /  20.3km/h 23.5mph /  37.8km/h 58.3% 0in /  0.0mm
17:54 84.6 °F /  29.2 °C 68.2 °F /  20.1 °C 29.8in /  1007.6hPa NE 11.8mph /  19km/h 23.5mph /  37.8km/h 58% 0in /  0.0mm
17:59 84.6 °F /  29.2 °C 68 °F /  20 °C 29.8in /  1007.6hPa NE 12.6mph /  20.3km/h 23mph /  37km/h 58% 0in /  0.0mm
18:04 84.9 °F /  29.4 °C 68.4 °F /  20.2 °C 29.8in /  1007.6hPa NE 14mph /  22.5km/h 23mph /  37km/h 57.9% 0in /  0.0mm
18:09 84.9 °F /  29.4 °C 68.4 °F /  20.2 °C 29.7in /  1007.3hPa NE 13.7mph /  22km/h 22.5mph /  36.2km/h 57.9% 0in /  0.0mm
18:14 84.7 °F /  29.3 °C 68.4 °F /  20.2 °C 29.7in /  1007.3hPa NE 13mph /  20.9km/h 23.5mph /  37.8km/h 58% 0in /  0.0mm
18:19 84.6 °F /  29.2 °C 68.4 °F /  20.2 °C 29.7in /  1007.3hPa NE 13.5mph /  21.7km/h 23mph /  37km/h 58.7% 0in /  0.0mm
18:24 84.2 °F /  29 °C 68.4 °F /  20.2 °C 29.7in /  1007.2hPa NE 14.5mph /  23.3km/h 22mph /  35.4km/h 59.3% 0in /  0.0mm
18:29 84.2 °F /  29 °C 68.9 °F /  20.5 °C 29.7in /  1007.2hPa NE 13.9mph /  22.4km/h 21mph /  33.8km/h 60% 0in /  0.0mm
18:34 84 °F /  28.9 °C 69.1 °F /  20.6 °C 29.7in /  1007.2hPa NE 12.5mph /  20.1km/h 20.1mph /  32.3km/h 60.7% 0in /  0.0mm
18:39 83.7 °F /  28.7 °C 68.9 °F /  20.5 °C 29.7in /  1007.2hPa NE 12.9mph /  20.7km/h 21.9mph /  35.2km/h 61% 0in /  0.0mm
18:44 83.7 °F /  28.7 °C 68.9 °F /  20.5 °C 29.7in /  1007.2hPa NE 13.5mph /  21.7km/h 22mph /  35.4km/h 61.2% 0in /  0.0mm
18:49 83.5 °F /  28.6 °C 69.1 °F /  20.6 °C 29.7in /  1007.2hPa NE 13.2mph /  21.2km/h 19mph /  30.6km/h 62% 0in /  0.0mm
18:54 83.8 °F /  28.8 °C 69.1 °F /  20.6 °C 29.7in /  1007.0hPa NE 12.5mph /  20.1km/h 20.7mph /  33.3km/h 61.6% 0in /  0.0mm
18:59 83.8 °F /  28.8 °C 69.1 °F /  20.6 °C 29.7in /  1007.0hPa NE 12.2mph /  19.7km/h 22.3mph /  35.9km/h 61% 0in /  0.0mm
19:04 83.8 °F /  28.8 °C 69.3 °F /  20.7 °C 29.7in /  1007.0hPa NE 11.8mph /  19km/h 22mph /  35.4km/h 61.4% 0in /  0.0mm
19:09 84 °F /  28.9 °C 69.1 °F /  20.6 °C 29.7in /  1007.0hPa NE 11.7mph /  18.8km/h 21mph /  33.8km/h 61.2% 0in /  0.0mm
19:14 83.7 °F /  28.7 °C 69.3 °F /  20.7 °C 29.7in /  1007.0hPa NE 11.4mph /  18.4km/h 20.7mph /  33.3km/h 62% 0in /  0.0mm
19:19 83.1 °F /  28.4 °C 68.7 °F /  20.4 °C 29.7in /  1007.0hPa NE 11.7mph /  18.8km/h 21mph /  33.8km/h 62.1% 0in /  0.0mm
19:24 82.8 °F /  28.2 °C 68.9 °F /  20.5 °C 29.7in /  1006.8hPa NE 12.3mph /  19.8km/h 20mph /  32.2km/h 63% 0in /  0.0mm
19:29 82.6 °F /  28.1 °C 68.4 °F /  20.2 °C 29.7in /  1006.8hPa NE 12.2mph /  19.6km/h 20mph /  32.2km/h 62.4% 0in /  0.0mm
19:34 82.4 °F /  28 °C 68 °F /  20 °C 29.7in /  1006.8hPa NE 11.8mph /  19km/h 21.3mph /  34.3km/h 61.9% 0in /  0.0mm
19:39 81.9 °F /  27.7 °C 67.6 °F /  19.8 °C 29.7in /  1006.8hPa NE 11.8mph /  19km/h 21.3mph /  34.3km/h 62% 0in /  0.0mm
19:44 81.7 °F /  27.6 °C 67.5 °F /  19.7 °C 29.7in /  1006.8hPa NE 11.8mph /  19km/h 21mph /  33.8km/h 62% 0in /  0.0mm
19:49 81.5 °F /  27.5 °C 67.1 °F /  19.5 °C 29.7in /  1006.9hPa NE 11.6mph /  18.7km/h 17.5mph /  28.2km/h 61.6% 0in /  0.0mm
19:54 81.1 °F /  27.3 °C 66.6 °F /  19.2 °C 29.7in /  1006.9hPa NE 11.2mph /  18km/h 17.5mph /  28.2km/h 61.2% 0in /  0.0mm
19:59 81 °F /  27.2 °C 66.7 °F /  19.3 °C 29.7in /  1006.9hPa NNE 11.3mph /  18.2km/h 21.3mph /  34.3km/h 62% 0in /  0.0mm
20:04 80.6 °F /  27 °C 66.4 °F /  19.1 °C 29.7in /  1007.3hPa NE 11.4mph /  18.4km/h 21.9mph /  35.2km/h 62.2% 0in /  0.0mm
20:09 80.2 °F /  26.8 °C 66.7 °F /  19.3 °C 29.7in /  1007.3hPa NE 12mph /  19.3km/h 24.2mph /  38.9km/h 63.5% 0in /  0.0mm
20:14 80.1 °F /  26.7 °C 66.7 °F /  19.3 °C 29.7in /  1007.3hPa NE 13mph /  20.9km/h 24mph /  38.6km/h 64% 0in /  0.0mm
20:19 79.7 °F /  26.5 °C 66.4 °F /  19.1 °C 29.8in /  1007.4hPa NE 12.9mph /  20.7km/h 21.9mph /  35.2km/h 64% 0in /  0.0mm
20:24 79.3 °F /  26.3 °C 66.6 °F /  19.2 °C 29.8in /  1007.4hPa NE 12.5mph /  20.1km/h 25.3mph /  40.7km/h 64.7% 0in /  0.0mm
20:29 79.3 °F /  26.3 °C 66.6 °F /  19.2 °C 29.8in /  1007.4hPa NE 12.3mph /  19.8km/h 25.3mph /  40.7km/h 65.1% 0in /  0.0mm
20:34 79.3 °F /  26.3 °C 66.4 °F /  19.1 °C 29.8in /  1007.6hPa NE 11.8mph /  19km/h 21.3mph /  34.3km/h 65% 0in /  0.0mm
20:39 79.2 °F /  26.2 °C 66.7 °F /  19.3 °C 29.8in /  1007.6hPa NE 11.7mph /  18.8km/h 21mph /  33.8km/h 65.8% 0in /  0.0mm
20:44 79 °F /  26.1 °C 67.3 °F /  19.6 °C 29.8in /  1007.6hPa NE 11.4mph /  18.4km/h 20mph /  32.2km/h 67.5% 0in /  0.0mm
20:49 78.6 °F /  25.9 °C 67.5 °F /  19.7 °C 29.8in /  1007.7hPa NE 11.6mph /  18.6km/h 22.3mph /  35.9km/h 68.7% 0in /  0.0mm
20:54 78.3 °F /  25.7 °C 67.6 °F /  19.8 °C 29.8in /  1007.7hPa NE 11.8mph /  19km/h 22mph /  35.4km/h 69.6% 0in /  0.0mm
20:59 78.3 °F /  25.7 °C 68 °F /  20 °C 29.8in /  1007.7hPa NE 12mph /  19.3km/h 21mph /  33.8km/h 70.9% 0in /  0.0mm
21:04 78.1 °F /  25.6 °C 68 °F /  20 °C 29.8in /  1008.0hPa NE 12.3mph /  19.8km/h 21mph /  33.8km/h 71.1% 0in /  0.0mm
21:09 78.1 °F /  25.6 °C 68.4 °F /  20.2 °C 29.8in /  1008.0hPa NE 12mph /  19.3km/h 20mph /  32.2km/h 72.2% 0in /  0.0mm
21:14 77.7 °F /  25.4 °C 68.5 °F /  20.3 °C 29.8in /  1008.0hPa NE 11.4mph /  18.4km/h 16.3mph /  26.2km/h 73.3% 0in /  0.0mm
21:19 77.5 °F /  25.3 °C 68.7 °F /  20.4 °C 29.8in /  1008.3hPa NE 10.9mph /  17.6km/h 16mph /  25.7km/h 74.3% 0in /  0.0mm
21:24 77.4 °F /  25.2 °C 68.9 °F /  20.5 °C 29.8in /  1008.3hPa NE 10mph /  16.1km/h 17mph /  27.4km/h 75% 0in /  0.0mm
21:29 77.2 °F /  25.1 °C 68.9 °F /  20.5 °C 29.8in /  1008.3hPa NE 9.8mph /  15.7km/h 17.3mph /  27.8km/h 75.7% 0in /  0.0mm
21:34 77 °F /  25 °C 68.9 °F /  20.5 °C 29.8in /  1008.4hPa NNE 9.2mph /  14.8km/h 17mph /  27.4km/h 76% 0in /  0.0mm
21:39 76.6 °F /  24.8 °C 68.7 °F /  20.4 °C 29.8in /  1008.4hPa NNE 9.1mph /  14.6km/h 16.1mph /  25.9km/h 76.2% 0in /  0.0mm
21:44 76.5 °F /  24.7 °C 68.7 °F /  20.4 °C 29.8in /  1008.4hPa NE 8.7mph /  14km/h 14mph /  22.5km/h 77% 0in /  0.0mm
21:49 76.3 °F /  24.6 °C 68.7 °F /  20.4 °C 29.8in /  1008.6hPa NE 8.6mph /  13.9km/h 16.1mph /  25.9km/h 77.8% 0in /  0.0mm
21:54 75.9 °F /  24.4 °C 68.5 °F /  20.3 °C 29.8in /  1008.6hPa NNE 8.5mph /  13.7km/h 16mph /  25.7km/h 78% 0in /  0.0mm
21:59 75.7 °F /  24.3 °C 68.7 °F /  20.4 °C 29.8in /  1008.6hPa NNE 8.1mph /  13.1km/h 15mph /  24.1km/h 78.8% 0in /  0.0mm
22:04 75.7 °F /  24.3 °C 68.7 °F /  20.4 °C 29.8in /  1008.8hPa NNE 7.6mph /  12.2km/h 15.2mph /  24.5km/h 79% 0in /  0.0mm
22:09 75.6 °F /  24.2 °C 68.7 °F /  20.4 °C 29.8in /  1008.8hPa NE 8.3mph /  13.4km/h 15.2mph /  24.5km/h 79.3% 0in /  0.0mm
22:14 75.4 °F /  24.1 °C 68.9 °F /  20.5 °C 29.8in /  1008.8hPa NE 9.7mph /  15.6km/h 15.9mph /  25.6km/h 80% 0in /  0.0mm
22:19 75.4 °F /  24.1 °C 68.7 °F /  20.4 °C 29.8in /  1008.8hPa NNE 9.7mph /  15.6km/h 16.1mph /  25.9km/h 80% 0in /  0.0mm
22:24 75.2 °F /  24 °C 68.7 °F /  20.4 °C 29.8in /  1008.8hPa NE 9.7mph /  15.6km/h 16mph /  25.7km/h 80% 0in /  0.0mm
22:29 75 °F /  23.9 °C 68.9 °F /  20.5 °C 29.8in /  1008.8hPa NE 9mph /  14.5km/h 14mph /  22.5km/h 80.8% 0in /  0.0mm
22:34 75 °F /  23.9 °C 68.7 °F /  20.4 °C 29.8in /  1008.9hPa NE 7.6mph /  12.2km/h 16.3mph /  26.2km/h 81% 0in /  0.0mm
22:39 74.8 °F /  23.8 °C 68.7 °F /  20.4 °C 29.8in /  1008.9hPa NE 7.9mph /  12.7km/h 16.1mph /  25.9km/h 81% 0in /  0.0mm
22:44 74.8 °F /  23.8 °C 68.5 °F /  20.3 °C 29.8in /  1008.9hPa NE 8.5mph /  13.7km/h 15mph /  24.1km/h 81% 0in /  0.0mm
22:49 74.8 °F /  23.8 °C 68.5 °F /  20.3 °C 29.8in /  1009.2hPa NE 8mph /  12.9km/h 12mph /  19.3km/h 81% 0in /  0.0mm
22:54 74.8 °F /  23.8 °C 68.7 °F /  20.4 °C 29.8in /  1009.2hPa NNE 6.9mph /  11.1km/h 12mph /  19.3km/h 81.3% 0in /  0.0mm
22:59 74.7 °F /  23.7 °C 68.7 °F /  20.4 °C 29.8in /  1009.2hPa NNE 6.3mph /  10.2km/h 10.4mph /  16.7km/h 82% 0in /  0.0mm
23:04 74.7 °F /  23.7 °C 68.7 °F /  20.4 °C 29.8in /  1009.4hPa NNE 5.4mph /  8.7km/h 10mph /  16.1km/h 82% 0in /  0.0mm
23:09 74.5 °F /  23.6 °C 68.5 °F /  20.3 °C 29.8in /  1009.4hPa NE 5.4mph /  8.7km/h 11.4mph /  18.3km/h 82% 0in /  0.0mm
23:14 74.5 °F /  23.6 °C 68.5 °F /  20.3 °C 29.8in /  1009.4hPa NNE 5.4mph /  8.7km/h 11mph /  17.7km/h 82% 0in /  0.0mm
23:19 74.5 °F /  23.6 °C 68.5 °F /  20.3 °C 29.8in /  1009.5hPa NE 5.1mph /  8.2km/h 10mph /  16.1km/h 82% 0in /  0.0mm
23:24 74.5 °F /  23.6 °C 68.5 °F /  20.3 °C 29.8in /  1009.5hPa NE 4.3mph /  6.9km/h 8.7mph /  14km/h 82% 0in /  0.0mm
23:29 74.3 °F /  23.5 °C 68.7 °F /  20.4 °C 29.8in /  1009.5hPa NNE 4.7mph /  7.5km/h 9.2mph /  14.8km/h 82.5% 0in /  0.0mm
23:34 74.1 °F /  23.4 °C 68.7 °F /  20.4 °C 29.8in /  1009.7hPa NNE 5.4mph /  8.7km/h 9.2mph /  14.8km/h 83% 0in /  0.0mm
23:39 74.1 °F /  23.4 °C 68.5 °F /  20.3 °C 29.8in /  1009.7hPa NNE 5.2mph /  8.4km/h 8.5mph /  13.7km/h 83% 0in /  0.0mm
23:44 74.1 °F /  23.4 °C 68.5 °F /  20.3 °C 29.8in /  1009.7hPa NNE 4.7mph /  7.6km/h 9mph /  14.5km/h 83% 0in /  0.0mm
23:49 73.9 °F /  23.3 °C 68.5 °F /  20.3 °C 29.8in /  1009.8hPa NE 4.3mph /  7km/h 8.1mph /  13km/h 83% 0in /  0.0mm
23:54 73.9 °F /  23.3 °C 68.4 °F /  20.2 °C 29.8in /  1009.8hPa NNE 3.6mph /  5.8km/h 8mph /  12.9km/h 83% 0in /  0.0mm
23:59 73.9 °F /  23.3 °C 68.4 °F /  20.2 °C 29.8in /  1009.8hPa NE 3.9mph /  6.2km/h 7.4mph /  11.9km/h 83% 0in /  0.0mm
Murcia-Puente Tocinos, España
Compliments of Weather Underground - 3 mb

La estación de MeteoMurcia.com, publica sus datos en los siguientes proyectos:

Weather Underground PWS IMURCIAP2 Meteoclimatic www.awekas.at

W3Counter
Web Analytics